createdAt,value
2018-11-02T00:01:22.491Z,12.20
2018-11-02T00:03:31.269Z,12.20
2018-11-02T00:05:40.016Z,12.20
2018-11-02T00:07:48.824Z,12.20
2018-11-02T00:09:57.519Z,12.20
2018-11-02T00:12:06.470Z,12.20
2018-11-02T00:14:15.948Z,12.20
2018-11-02T00:16:24.678Z,12.20
2018-11-02T00:18:33.574Z,12.30
2018-11-02T00:20:42.333Z,12.20
2018-11-02T00:22:51.047Z,12.30
2018-11-02T00:24:59.899Z,12.30
2018-11-02T00:27:09.483Z,12.30
2018-11-02T00:29:18.212Z,12.30
2018-11-02T00:31:27.044Z,12.30
2018-11-02T00:33:35.868Z,12.30
2018-11-02T00:35:45.508Z,12.30
2018-11-02T00:37:55.098Z,12.20
2018-11-02T00:40:03.898Z,12.20
2018-11-02T00:42:12.641Z,12.30
2018-11-02T00:44:21.455Z,12.30
2018-11-02T00:46:30.312Z,12.30
2018-11-02T00:48:39.124Z,12.30
2018-11-02T00:50:47.884Z,12.20
2018-11-02T00:52:58.132Z,12.20
2018-11-02T00:55:06.942Z,12.20
2018-11-02T00:57:15.757Z,12.20
2018-11-02T00:59:24.532Z,12.20
2018-11-02T01:01:34.155Z,12.20
2018-11-02T01:03:42.987Z,12.20
2018-11-02T01:05:51.982Z,12.20
2018-11-02T01:08:00.756Z,12.20
2018-11-02T01:10:09.514Z,12.10
2018-11-02T01:12:19.120Z,12.10
2018-11-02T01:14:27.832Z,12.10
2018-11-02T01:16:36.679Z,12.10
2018-11-02T01:18:45.479Z,12.10
2018-11-02T01:20:54.381Z,12.10
2018-11-02T01:23:04.108Z,12.00
2018-11-02T01:25:13.791Z,12.00
2018-11-02T01:27:22.586Z,12.00
2018-11-02T01:29:31.472Z,12.00
2018-11-02T01:31:40.128Z,12.00
2018-11-02T01:33:48.943Z,11.90
2018-11-02T01:35:57.573Z,11.90
2018-11-02T01:38:06.424Z,11.90
2018-11-02T01:40:15.093Z,11.90
2018-11-02T01:42:24.707Z,11.90
2018-11-02T01:44:33.543Z,11.90
2018-11-02T01:46:42.152Z,11.90
2018-11-02T01:48:50.974Z,11.80
2018-11-02T01:50:59.749Z,11.80
2018-11-02T01:53:08.407Z,11.80
2018-11-02T01:55:17.159Z,11.80
2018-11-02T01:57:25.898Z,11.80
2018-11-02T01:59:34.756Z,11.80
2018-11-02T02:01:43.743Z,11.80
2018-11-02T02:03:52.351Z,11.70
2018-11-02T02:06:01.143Z,11.70
2018-11-02T02:08:09.972Z,11.70
2018-11-02T02:10:18.788Z,11.70
2018-11-02T02:12:27.476Z,11.70
2018-11-02T02:14:36.382Z,11.70
2018-11-02T02:16:45.163Z,11.60
2018-11-02T02:18:53.979Z,11.60
2018-11-02T02:21:02.801Z,11.60
2018-11-02T02:23:13.162Z,11.50
2018-11-02T02:25:21.948Z,11.50
2018-11-02T02:27:30.671Z,11.50
2018-11-02T02:29:39.465Z,11.50
2018-11-02T02:31:48.073Z,11.50
2018-11-02T02:33:56.888Z,11.40
2018-11-02T02:36:06.491Z,11.40
2018-11-02T02:38:15.291Z,11.30
2018-11-02T02:40:24.129Z,11.30
2018-11-02T02:42:32.823Z,11.30
2018-11-02T02:44:41.596Z,11.20
2018-11-02T02:46:50.265Z,11.20
2018-11-02T02:48:59.012Z,11.20
2018-11-02T02:51:07.800Z,11.20
2018-11-02T02:53:17.405Z,11.10
2018-11-02T02:55:26.296Z,11.10
2018-11-02T02:57:35.046Z,11.10
2018-11-02T02:59:43.811Z,11.10
2018-11-02T03:01:52.654Z,11.00
2018-11-02T03:04:01.368Z,11.00
2018-11-02T03:06:10.066Z,11.00
2018-11-02T03:08:18.913Z,11.00
2018-11-02T03:10:27.739Z,11.00
2018-11-02T03:12:37.952Z,11.00
2018-11-02T03:14:46.806Z,11.00
2018-11-02T03:16:55.505Z,11.00
2018-11-02T03:19:04.327Z,11.00
2018-11-02T03:21:14.024Z,11.00
2018-11-02T03:23:22.891Z,11.00
2018-11-02T03:25:32.494Z,11.00
2018-11-02T03:27:41.186Z,11.00
2018-11-02T03:29:49.917Z,11.00
2018-11-02T03:31:58.764Z,11.00
2018-11-02T03:34:07.637Z,11.00
2018-11-02T03:36:16.410Z,11.00
2018-11-02T03:38:25.131Z,11.00
2018-11-02T03:40:34.674Z,11.00
2018-11-02T03:42:43.449Z,11.00
2018-11-02T03:44:52.281Z,11.00
2018-11-02T03:47:01.161Z,11.00
2018-11-02T03:49:11.467Z,11.00
2018-11-02T03:51:21.094Z,11.00
2018-11-02T03:53:30.345Z,11.10
2018-11-02T03:55:39.139Z,11.10
2018-11-02T03:57:47.899Z,11.10
2018-11-02T03:59:56.618Z,11.10
2018-11-02T04:02:05.443Z,11.10
2018-11-02T04:04:14.258Z,11.10
2018-11-02T04:06:23.283Z,11.10
2018-11-02T04:08:32.342Z,11.10
2018-11-02T04:10:40.993Z,11.10
2018-11-02T04:12:49.775Z,11.20
2018-11-02T04:14:59.434Z,11.20
2018-11-02T04:17:08.182Z,11.20
2018-11-02T04:19:16.921Z,11.20
2018-11-02T04:21:25.694Z,11.20
2018-11-02T04:23:34.413Z,11.20
2018-11-02T04:25:43.373Z,11.20
2018-11-02T04:27:52.176Z,11.20
2018-11-02T04:30:00.970Z,11.30
2018-11-02T04:32:09.923Z,11.30
2018-11-02T04:34:19.356Z,11.20
2018-11-02T04:36:28.050Z,11.20
2018-11-02T04:38:37.817Z,11.20
2018-11-02T04:40:46.611Z,11.20
2018-11-02T04:42:55.407Z,11.20
2018-11-02T04:45:04.917Z,11.10
2018-11-02T04:47:13.711Z,11.10
2018-11-02T04:49:22.487Z,11.10
2018-11-02T04:51:31.475Z,11.10
2018-11-02T04:53:40.226Z,11.10
2018-11-02T04:55:49.679Z,11.00
2018-11-02T04:57:59.358Z,11.00
2018-11-02T05:00:08.979Z,11.00
2018-11-02T05:02:17.723Z,11.00
2018-11-02T05:04:26.546Z,11.00
2018-11-02T05:06:35.358Z,11.00
2018-11-02T05:08:44.083Z,10.90
2018-11-02T05:10:52.922Z,10.90
2018-11-02T05:13:01.791Z,10.80
2018-11-02T05:15:10.632Z,10.80
2018-11-02T05:17:19.555Z,10.80
2018-11-02T05:19:28.242Z,10.80
2018-11-02T05:21:36.959Z,10.70
2018-11-02T05:23:46.744Z,10.70
2018-11-02T05:25:55.694Z,10.70
2018-11-02T05:28:04.482Z,10.60
2018-11-02T05:30:13.427Z,10.60
2018-11-02T05:32:22.221Z,10.60
2018-11-02T05:34:31.006Z,10.60
2018-11-02T05:36:39.982Z,10.50
2018-11-02T05:38:48.936Z,10.50
2018-11-02T05:40:57.706Z,10.50
2018-11-02T05:43:06.722Z,10.50
2018-11-02T05:45:16.325Z,10.40
2018-11-02T05:47:25.276Z,10.40
2018-11-02T05:49:34.043Z,10.40
2018-11-02T05:51:43.615Z,10.30
2018-11-02T05:53:52.240Z,10.30
2018-11-02T05:56:01.177Z,10.20
2018-11-02T05:58:09.996Z,10.20
2018-11-02T06:00:18.703Z,10.10
2018-11-02T06:02:27.524Z,10.10
2018-11-02T06:04:36.396Z,10.00
2018-11-02T06:06:45.163Z,10.00
2018-11-02T06:08:54.805Z,9.90
2018-11-02T06:11:04.332Z,9.90
2018-11-02T06:13:13.178Z,9.90
2018-11-02T06:15:21.974Z,9.90
2018-11-02T06:17:30.679Z,9.80
2018-11-02T06:19:39.315Z,9.80
2018-11-02T06:21:48.450Z,9.70
2018-11-02T06:23:57.256Z,9.70
2018-11-02T06:26:06.210Z,9.60
2018-11-02T06:28:15.834Z,9.50
2018-11-02T06:30:24.652Z,9.50
2018-11-02T06:32:33.425Z,9.50
2018-11-02T06:34:42.215Z,9.50
2018-11-02T06:36:50.987Z,9.50
2018-11-02T06:39:00.517Z,9.50
2018-11-02T06:41:09.475Z,9.50
2018-11-02T06:43:19.922Z,9.40
2018-11-02T06:45:28.658Z,9.40
2018-11-02T06:47:37.492Z,9.40
2018-11-02T06:49:47.070Z,9.30
2018-11-02T06:51:55.767Z,9.30
2018-11-02T06:54:04.576Z,9.30
2018-11-02T06:56:13.514Z,9.30
2018-11-02T06:58:22.978Z,9.30
2018-11-02T07:00:31.797Z,9.30
2018-11-02T07:02:40.509Z,9.40
2018-11-02T07:04:50.680Z,9.40
2018-11-02T07:07:00.417Z,9.40
2018-11-02T07:09:09.140Z,9.30
2018-11-02T07:11:18.750Z,9.40
2018-11-02T07:13:28.319Z,9.40
2018-11-02T07:15:37.155Z,9.40
2018-11-02T07:17:46.062Z,9.40
2018-11-02T07:19:54.762Z,9.50
2018-11-02T07:22:03.660Z,9.50
2018-11-02T07:24:12.440Z,9.50
2018-11-02T07:26:21.143Z,9.60
2018-11-02T07:28:29.834Z,9.60
2018-11-02T07:30:38.739Z,9.70
2018-11-02T07:32:48.315Z,9.80
2018-11-02T07:34:57.098Z,9.70
2018-11-02T07:37:05.732Z,9.80
2018-11-02T07:39:14.675Z,9.90
2018-11-02T07:41:23.478Z,9.90
2018-11-02T07:43:32.394Z,10.00
2018-11-02T07:45:41.851Z,10.10
2018-11-02T07:47:50.678Z,10.10
2018-11-02T07:49:59.347Z,10.10
2018-11-02T07:52:08.126Z,10.20
2018-11-02T07:54:17.016Z,10.20
2018-11-02T07:56:25.713Z,10.20
2018-11-02T07:58:34.487Z,10.30
2018-11-02T08:00:43.173Z,10.40
2018-11-02T08:02:52.682Z,10.50
2018-11-02T08:05:01.523Z,10.40
2018-11-02T08:07:10.411Z,10.50
2018-11-02T08:09:19.135Z,10.50
2018-11-02T08:11:27.985Z,10.60
2018-11-02T08:13:36.787Z,10.60
2018-11-02T08:15:45.595Z,10.70
2018-11-02T08:17:54.450Z,10.70
2018-11-02T08:20:03.112Z,10.80
2018-11-02T08:22:11.874Z,10.80
2018-11-02T08:24:20.858Z,10.90
2018-11-02T08:26:30.529Z,11.00
2018-11-02T08:28:39.338Z,11.00
2018-11-02T08:30:48.062Z,11.10
2018-11-02T08:32:56.815Z,11.10
2018-11-02T08:35:05.533Z,11.20
2018-11-02T08:37:14.515Z,11.20
2018-11-02T08:39:23.264Z,11.30
2018-11-02T08:41:32.879Z,11.30
2018-11-02T08:43:42.330Z,11.40
2018-11-02T08:45:51.195Z,11.40
2018-11-02T08:48:00.663Z,11.50
2018-11-02T08:50:10.237Z,11.50
2018-11-02T08:52:19.034Z,11.50
2018-11-02T08:54:28.550Z,11.60
2018-11-02T08:56:37.342Z,11.60
2018-11-02T08:58:46.461Z,11.60
2018-11-02T09:00:55.835Z,11.70
2018-11-02T09:03:04.587Z,11.70
2018-11-02T09:05:13.520Z,11.70
2018-11-02T09:07:22.253Z,11.80
2018-11-02T09:09:30.923Z,11.80
2018-11-02T09:11:39.640Z,11.80
2018-11-02T09:13:48.475Z,11.90
2018-11-02T09:15:58.042Z,12.00
2018-11-02T09:18:06.835Z,11.90
2018-11-02T09:20:15.658Z,12.00
2018-11-02T09:22:24.683Z,12.00
2018-11-02T09:24:33.623Z,12.10
2018-11-02T09:26:43.313Z,12.10
2018-11-02T09:28:52.085Z,12.10
2018-11-02T09:31:00.988Z,12.10
2018-11-02T09:33:09.887Z,12.20
2018-11-02T09:35:18.828Z,12.20
2018-11-02T09:37:28.554Z,12.30
2018-11-02T09:39:37.390Z,12.30
2018-11-02T09:41:46.239Z,12.30
2018-11-02T09:43:55.103Z,12.30
2018-11-02T09:46:04.747Z,12.40
2018-11-02T09:48:13.537Z,12.40
2018-11-02T09:50:22.287Z,12.40
2018-11-02T09:52:30.984Z,12.40
2018-11-02T09:54:39.951Z,12.50
2018-11-02T09:56:48.759Z,12.50
2018-11-02T09:58:57.485Z,12.50
2018-11-02T10:01:07.135Z,12.60
2018-11-02T10:03:15.954Z,12.50
2018-11-02T10:05:24.630Z,12.60
2018-11-02T10:07:33.570Z,12.60
2018-11-02T10:09:42.299Z,12.70
2018-11-02T10:11:51.064Z,12.70
2018-11-02T10:13:59.982Z,12.70
2018-11-02T10:16:08.758Z,12.70
2018-11-02T10:18:17.645Z,12.80
2018-11-02T10:20:27.216Z,12.80
2018-11-02T10:22:35.875Z,12.80
2018-11-02T10:24:44.763Z,12.90
2018-11-02T10:26:53.570Z,12.90
2018-11-02T10:29:02.291Z,12.90
2018-11-02T10:31:11.006Z,12.90
2018-11-02T10:33:19.858Z,13.00
2018-11-02T10:35:28.722Z,13.00
2018-11-02T10:37:37.430Z,13.00
2018-11-02T10:39:46.446Z,13.10
2018-11-02T10:41:55.175Z,13.10
2018-11-02T10:44:03.956Z,13.10
2018-11-02T10:46:12.758Z,13.20
2018-11-02T10:48:21.567Z,13.20
2018-11-02T10:50:30.450Z,13.20
2018-11-02T10:52:39.278Z,13.20
2018-11-02T10:54:48.036Z,13.20
2018-11-02T10:56:56.860Z,13.20
2018-11-02T10:59:06.517Z,13.30
2018-11-02T11:01:16.152Z,13.30
2018-11-02T11:03:24.883Z,13.30
2018-11-02T11:05:33.739Z,13.30
2018-11-02T11:07:42.564Z,13.30
2018-11-02T11:09:51.403Z,13.40
2018-11-02T11:12:01.014Z,13.40
2018-11-02T11:14:09.842Z,13.40
2018-11-02T11:16:20.068Z,13.50
2018-11-02T11:18:28.831Z,13.50
2018-11-02T11:20:37.597Z,13.50
2018-11-02T11:22:46.311Z,13.50
2018-11-02T11:24:55.096Z,13.60
2018-11-02T11:27:04.070Z,13.60
2018-11-02T11:29:12.858Z,13.60
2018-11-02T11:31:21.568Z,13.70
2018-11-02T11:33:31.167Z,13.80
2018-11-02T11:35:40.686Z,13.80
2018-11-02T11:37:50.367Z,13.80
2018-11-02T11:39:59.243Z,13.80
2018-11-02T11:42:08.894Z,13.90
2018-11-02T11:44:17.835Z,13.90
2018-11-02T11:46:27.463Z,14.10
2018-11-02T11:48:36.388Z,14.10
2018-11-02T11:50:45.331Z,14.20
2018-11-02T11:52:54.091Z,14.20
2018-11-02T11:55:02.828Z,14.30
2018-11-02T11:57:11.668Z,14.30
2018-11-02T11:59:20.550Z,14.40
2018-11-02T12:01:29.379Z,14.40
2018-11-02T12:03:38.178Z,14.50
2018-11-02T12:05:47.075Z,14.60
2018-11-02T12:07:55.895Z,14.60
2018-11-02T12:10:04.720Z,14.70
2018-11-02T12:12:13.577Z,14.80
2018-11-02T12:14:22.323Z,14.80
2018-11-02T12:16:31.119Z,14.90
2018-11-02T12:18:39.935Z,14.90
2018-11-02T12:20:48.703Z,15.00
2018-11-02T12:22:57.508Z,15.10
2018-11-02T12:25:06.356Z,15.10
2018-11-02T12:27:15.167Z,15.20
2018-11-02T12:29:24.718Z,15.30
2018-11-02T12:31:33.423Z,15.30
2018-11-02T12:33:42.234Z,15.40
2018-11-02T12:35:51.895Z,15.50
2018-11-02T12:38:02.116Z,15.50
2018-11-02T12:40:10.812Z,15.50
2018-11-02T12:42:19.783Z,15.50
2018-11-02T12:44:28.582Z,15.60
2018-11-02T12:46:37.519Z,15.70
2018-11-02T12:48:46.446Z,15.70
2018-11-02T12:50:55.101Z,15.80
2018-11-02T12:53:03.942Z,15.90
2018-11-02T12:55:12.698Z,16.00
2018-11-02T12:57:21.578Z,16.00
2018-11-02T12:59:30.311Z,16.10
2018-11-02T13:01:39.354Z,16.20
2018-11-02T13:03:48.175Z,16.30
2018-11-02T13:05:57.084Z,16.40
2018-11-02T13:08:05.839Z,16.50
2018-11-02T13:10:15.535Z,16.60
2018-11-02T13:12:24.328Z,16.50
2018-11-02T13:14:33.134Z,16.60
2018-11-02T13:16:41.974Z,16.60
2018-11-02T13:18:51.462Z,16.70
2018-11-02T13:21:00.995Z,16.60
2018-11-02T13:23:09.804Z,16.60
2018-11-02T13:25:18.642Z,16.70
2018-11-02T13:27:27.522Z,16.60
2018-11-02T13:29:36.437Z,16.60
2018-11-02T13:31:45.182Z,16.50
2018-11-02T13:33:54.036Z,16.60
2018-11-02T13:36:02.972Z,16.60
2018-11-02T13:38:11.632Z,16.60
2018-11-02T13:40:20.435Z,16.70
2018-11-02T13:42:29.295Z,16.80
2018-11-02T13:44:38.100Z,16.80
2018-11-02T13:46:47.070Z,16.90
2018-11-02T13:48:55.851Z,16.90
2018-11-02T13:51:04.656Z,16.90
2018-11-02T13:53:13.514Z,17.00
2018-11-02T13:55:22.451Z,17.00
2018-11-02T13:57:31.181Z,16.90
2018-11-02T13:59:40.135Z,16.90
2018-11-02T14:01:48.857Z,16.90
2018-11-02T14:03:57.655Z,16.80
2018-11-02T14:06:06.497Z,16.90
2018-11-02T14:08:15.216Z,16.90
2018-11-02T14:10:23.985Z,16.90
2018-11-02T14:12:32.774Z,16.90
2018-11-02T14:14:41.492Z,16.90
2018-11-02T14:16:50.244Z,16.80
2018-11-02T14:18:59.347Z,16.90
2018-11-02T14:21:08.155Z,16.80
2018-11-02T14:23:16.869Z,16.80
2018-11-02T14:25:25.727Z,16.80
2018-11-02T14:27:34.490Z,16.80
2018-11-02T14:29:44.016Z,16.70
2018-11-02T14:31:52.918Z,16.70
2018-11-02T14:34:03.220Z,16.60
2018-11-02T14:36:12.011Z,16.50
2018-11-02T14:38:20.970Z,16.60
2018-11-02T14:40:29.724Z,16.50
2018-11-02T14:42:39.291Z,16.40
2018-11-02T14:44:48.058Z,16.40
2018-11-02T14:46:57.584Z,16.40
2018-11-02T14:49:06.438Z,16.30
2018-11-02T14:51:15.399Z,16.30
2018-11-02T14:53:24.201Z,16.20
2018-11-02T14:55:33.847Z,16.20
2018-11-02T14:57:42.780Z,16.20
2018-11-02T14:59:52.525Z,16.10
2018-11-02T15:02:01.193Z,16.10
2018-11-02T15:04:09.992Z,16.00
2018-11-02T15:06:20.308Z,15.90
2018-11-02T15:08:29.207Z,15.90
2018-11-02T15:10:38.203Z,15.90
2018-11-02T15:12:46.990Z,15.90
2018-11-02T15:14:55.791Z,15.90
2018-11-02T15:17:04.730Z,15.80
2018-11-02T15:19:13.450Z,15.80
2018-11-02T15:21:22.173Z,15.80
2018-11-02T15:23:31.019Z,15.70
2018-11-02T15:25:39.779Z,15.70
2018-11-02T15:27:48.624Z,15.70
2018-11-02T15:29:57.427Z,15.60
2018-11-02T15:32:06.196Z,15.60
2018-11-02T15:34:15.031Z,15.60
2018-11-02T15:36:23.839Z,15.50
2018-11-02T15:38:32.657Z,15.50
2018-11-02T15:40:41.429Z,15.50
2018-11-02T15:42:50.299Z,15.40
2018-11-02T15:44:59.190Z,15.40
2018-11-02T15:47:08.802Z,15.40
2018-11-02T15:49:17.668Z,15.30
2018-11-02T15:51:27.370Z,15.30
2018-11-02T15:53:36.210Z,15.30
2018-11-02T15:55:45.242Z,15.20
2018-11-02T15:57:54.241Z,15.10
2018-11-02T16:00:02.854Z,15.10
2018-11-02T16:02:11.603Z,15.10
2018-11-02T16:04:20.423Z,15.00
2018-11-02T16:06:29.219Z,15.00
2018-11-02T16:08:38.869Z,14.90
2018-11-02T16:10:47.459Z,14.90
2018-11-02T16:12:56.301Z,14.80
2018-11-02T16:15:05.110Z,14.80
2018-11-02T16:17:13.910Z,14.70
2018-11-02T16:19:22.702Z,14.70
2018-11-02T16:21:31.636Z,14.70
2018-11-02T16:23:40.472Z,14.60
2018-11-02T16:25:49.907Z,14.50
2018-11-02T16:27:58.766Z,14.50
2018-11-02T16:30:07.549Z,14.50
2018-11-02T16:32:16.267Z,14.50
2018-11-02T16:34:25.227Z,14.40
2018-11-02T16:36:34.839Z,14.40
2018-11-02T16:38:43.630Z,14.40
2018-11-02T16:40:52.400Z,14.40
2018-11-02T16:43:01.095Z,14.40
2018-11-02T16:45:09.847Z,14.30
2018-11-02T16:47:18.682Z,14.30
2018-11-02T16:49:27.420Z,14.30
2018-11-02T16:51:37.579Z,14.20
2018-11-02T16:53:46.647Z,14.20
2018-11-02T16:55:55.255Z,14.20
2018-11-02T16:58:04.124Z,14.20
2018-11-02T17:00:13.019Z,14.10
2018-11-02T17:02:21.926Z,14.10
2018-11-02T17:04:30.716Z,14.10
2018-11-02T17:06:39.449Z,14.00
2018-11-02T17:08:48.162Z,14.00
2018-11-02T17:10:56.840Z,14.00
2018-11-02T17:13:05.723Z,14.00
2018-11-02T17:15:14.502Z,13.90
2018-11-02T17:17:24.130Z,13.90
2018-11-02T17:19:33.818Z,13.90
2018-11-02T17:21:42.658Z,13.90
2018-11-02T17:23:51.395Z,13.90
2018-11-02T17:26:00.206Z,13.90
2018-11-02T17:28:08.978Z,13.80
2018-11-02T17:30:17.772Z,13.80
2018-11-02T17:32:26.604Z,13.70
2018-11-02T17:34:35.383Z,13.70
2018-11-02T17:36:44.387Z,13.70
2018-11-02T17:38:53.001Z,13.70
2018-11-02T17:41:01.782Z,13.60
2018-11-02T17:43:10.727Z,13.60
2018-11-02T17:45:21.193Z,13.60
2018-11-02T17:47:30.014Z,13.60
2018-11-02T17:49:39.510Z,13.50
2018-11-02T17:51:48.369Z,13.60
2018-11-02T17:53:57.148Z,13.60
2018-11-02T17:56:06.689Z,13.50
2018-11-02T17:58:16.261Z,13.60
2018-11-02T18:00:25.057Z,13.60
2018-11-02T18:02:33.867Z,13.60
2018-11-02T18:04:43.219Z,13.60
2018-11-02T18:06:52.138Z,13.60
2018-11-02T18:09:00.960Z,13.50
2018-11-02T18:11:09.902Z,13.50
2018-11-02T18:13:18.610Z,13.50
2018-11-02T18:15:28.121Z,13.40
2018-11-02T18:17:36.983Z,13.40
2018-11-02T18:19:45.799Z,13.30
2018-11-02T18:21:54.685Z,13.30
2018-11-02T18:24:03.379Z,13.20
2018-11-02T18:26:12.320Z,13.10
2018-11-02T18:28:21.171Z,13.10
2018-11-02T18:30:30.021Z,13.00
2018-11-02T18:32:38.807Z,13.00
2018-11-02T18:34:47.552Z,13.00
2018-11-02T18:36:56.359Z,12.90
2018-11-02T18:39:05.219Z,12.80
2018-11-02T18:41:13.975Z,12.80
2018-11-02T18:43:23.668Z,12.70
2018-11-02T18:45:32.411Z,12.70
2018-11-02T18:47:41.225Z,12.70
2018-11-02T18:49:50.919Z,12.60
2018-11-02T18:51:59.674Z,12.60
2018-11-02T18:54:08.531Z,12.60
2018-11-02T18:56:17.382Z,12.50
2018-11-02T18:58:26.958Z,12.50
2018-11-02T19:00:35.790Z,12.50
2018-11-02T19:02:44.829Z,12.50
2018-11-02T19:04:53.524Z,12.50
2018-11-02T19:07:02.363Z,12.40
2018-11-02T19:09:11.104Z,12.40
2018-11-02T19:11:19.939Z,12.40
2018-11-02T19:13:28.873Z,12.40
2018-11-02T19:15:37.749Z,12.30
2018-11-02T19:17:46.640Z,12.30
2018-11-02T19:19:57.058Z,12.20
2018-11-02T19:22:05.775Z,12.20
2018-11-02T19:24:14.591Z,12.20
2018-11-02T19:26:23.306Z,12.20
2018-11-02T19:28:32.255Z,12.20
2018-11-02T19:30:41.042Z,12.10
2018-11-02T19:32:50.560Z,12.10
2018-11-02T19:34:59.675Z,12.10
2018-11-02T19:37:08.213Z,12.10
2018-11-02T19:39:17.030Z,12.10
2018-11-02T19:41:26.035Z,12.00
2018-11-02T19:43:34.871Z,12.00
2018-11-02T19:45:43.564Z,12.00
2018-11-02T19:47:53.856Z,12.00
2018-11-02T19:50:02.676Z,12.00
2018-11-02T19:52:11.447Z,11.90
2018-11-02T19:54:20.378Z,11.90
2018-11-02T19:56:29.238Z,11.90
2018-11-02T19:58:38.048Z,11.90
2018-11-02T20:00:47.164Z,11.90
2018-11-02T20:02:56.038Z,11.80
2018-11-02T20:05:04.808Z,11.80
2018-11-02T20:07:13.654Z,11.80
2018-11-02T20:09:23.113Z,11.80
2018-11-02T20:11:31.789Z,11.80
2018-11-02T20:13:40.650Z,11.80
2018-11-02T20:15:49.395Z,11.80
2018-11-02T20:17:58.923Z,11.80
2018-11-02T20:20:07.798Z,11.80
2018-11-02T20:22:16.687Z,11.80
2018-11-02T20:24:26.209Z,11.80
2018-11-02T20:26:35.180Z,11.80
2018-11-02T20:28:44.780Z,11.90
2018-11-02T20:30:53.629Z,11.80
2018-11-02T20:33:03.920Z,11.90
2018-11-02T20:35:12.715Z,11.80
2018-11-02T20:37:21.527Z,11.90
2018-11-02T20:39:30.453Z,11.90
2018-11-02T20:41:39.278Z,11.80
2018-11-02T20:43:48.067Z,11.90
2018-11-02T20:45:57.632Z,11.80
2018-11-02T20:48:06.556Z,11.80
2018-11-02T20:50:16.150Z,11.80
2018-11-02T20:52:25.115Z,11.80
2018-11-02T20:54:33.994Z,11.80
2018-11-02T20:56:42.907Z,11.80
2018-11-02T20:58:51.774Z,11.80
2018-11-02T21:01:00.582Z,11.80
2018-11-02T21:03:09.387Z,11.80
2018-11-02T21:05:19.079Z,11.80
2018-11-02T21:07:28.029Z,11.80
2018-11-02T21:09:37.065Z,11.80
2018-11-02T21:11:45.833Z,11.80
2018-11-02T21:13:56.530Z,11.80
2018-11-02T21:16:05.420Z,11.80
2018-11-02T21:18:14.171Z,11.80
2018-11-02T21:20:22.890Z,11.80
2018-11-02T21:22:32.546Z,11.70
2018-11-02T21:24:41.463Z,11.70
2018-11-02T21:26:50.940Z,11.70
2018-11-02T21:28:59.770Z,11.70
2018-11-02T21:31:08.477Z,11.70
2018-11-02T21:33:17.984Z,11.70
2018-11-02T21:35:26.787Z,11.70
2018-11-02T21:37:35.651Z,11.70
2018-11-02T21:39:45.265Z,11.70
2018-11-02T21:41:53.991Z,11.70
2018-11-02T21:44:02.795Z,11.70
2018-11-02T21:46:11.527Z,11.70
2018-11-02T21:48:20.260Z,11.60
2018-11-02T21:50:29.047Z,11.60
2018-11-02T21:52:37.782Z,11.60
2018-11-02T21:54:47.392Z,11.60
2018-11-02T21:56:56.240Z,11.60
2018-11-02T21:59:04.972Z,11.60
2018-11-02T22:01:13.688Z,11.50
2018-11-02T22:03:22.483Z,11.50
2018-11-02T22:05:31.298Z,11.50
2018-11-02T22:07:40.934Z,11.40
2018-11-02T22:09:49.720Z,11.40
2018-11-02T22:11:59.378Z,11.40
2018-11-02T22:14:08.238Z,11.40
2018-11-02T22:16:17.794Z,11.30
2018-11-02T22:18:26.695Z,11.30
2018-11-02T22:20:35.523Z,11.40
2018-11-02T22:22:44.321Z,11.30
2018-11-02T22:24:53.947Z,11.30
2018-11-02T22:27:02.821Z,11.30
2018-11-02T22:29:11.640Z,11.30
2018-11-02T22:31:20.391Z,11.30
2018-11-02T22:33:29.157Z,11.30
2018-11-02T22:35:38.819Z,11.30
2018-11-02T22:37:47.785Z,11.30
2018-11-02T22:39:56.723Z,11.30
2018-11-02T22:42:05.388Z,11.30
2018-11-02T22:44:14.958Z,11.20
2018-11-02T22:46:23.787Z,11.20
2018-11-02T22:48:32.809Z,11.20
2018-11-02T22:50:41.543Z,11.20
2018-11-02T22:52:50.326Z,11.10
2018-11-02T22:54:59.046Z,11.10
2018-11-02T22:57:08.610Z,11.10
2018-11-02T22:59:19.189Z,11.00
2018-11-02T23:01:28.226Z,11.00
2018-11-02T23:03:36.902Z,11.00
2018-11-02T23:05:45.793Z,11.00
2018-11-02T23:07:54.397Z,10.90
2018-11-02T23:10:03.191Z,10.90
2018-11-02T23:12:11.963Z,10.90
2018-11-02T23:14:20.822Z,10.80
2018-11-02T23:16:30.429Z,10.70
2018-11-02T23:18:39.355Z,10.80
2018-11-02T23:20:48.221Z,10.70
2018-11-02T23:22:57.122Z,10.70
2018-11-02T23:25:05.838Z,10.60
2018-11-02T23:27:15.401Z,10.60
2018-11-02T23:29:25.784Z,10.50
2018-11-02T23:31:34.568Z,10.50
2018-11-02T23:33:43.416Z,10.50
2018-11-02T23:35:52.197Z,10.40
2018-11-02T23:38:01.012Z,10.40
2018-11-02T23:40:09.951Z,10.30
2018-11-02T23:42:19.456Z,10.30
2018-11-02T23:44:29.007Z,10.20
2018-11-02T23:46:37.883Z,10.20
2018-11-02T23:48:46.666Z,10.20
2018-11-02T23:50:56.281Z,10.00
2018-11-02T23:53:05.161Z,10.00
2018-11-02T23:55:15.028Z,10.00
2018-11-02T23:57:23.794Z,10.00
2018-11-02T23:59:33.542Z,9.90
